Time,TemperatureF,DewpointF,PressureIn,WindDirection,WindDirectionDegrees,WindSpeedMPH,WindSpeedGustMPH,Humidity,HourlyPrecipIn,Conditions,Clouds,dailyrainin,SoftwareType,DateUTC
2013-03-17 00:02:00,54.4,53.0,30.12,SE,139,0.0,0.0,93,0.00,,,0.00,weatherlink.com 1.10,2013-03-17 04:02:00,
2013-03-17 00:17:00,53.8,52.0,30.12,SE,139,0.0,0.0,93,0.00,,,0.00,weatherlink.com 1.10,2013-03-17 04:17:00,
2013-03-17 00:32:00,53.3,52.0,30.11,SE,140,0.0,0.0,95,0.00,,,0.00,weatherlink.com 1.10,2013-03-17 04:32:00,
2013-03-17 00:47:00,52.5,51.0,30.11,SE,139,0.0,0.0,95,0.00,,,0.00,weatherlink.com 1.10,2013-03-17 04:47:00,
2013-03-17 01:03:00,53.1,52.0,30.11,SE,142,0.0,0.0,96,0.00,,,0.00,weatherlink.com 1.10,2013-03-17 05:03:00,
2013-03-17 01:18:00,52.4,51.0,30.10,SE,142,0.0,0.0,95,0.00,,,0.00,weatherlink.com 1.10,2013-03-17 05:18:00,
2013-03-17 01:34:00,52.0,51.0,30.10,SE,141,0.0,0.0,96,0.00,,,0.00,weatherlink.com 1.10,2013-03-17 05:34:00,
2013-03-17 01:48:00,51.1,50.0,30.10,SE,141,0.0,0.0,96,0.00,,,0.00,weatherlink.com 1.10,2013-03-17 05:48:00,
2013-03-17 02:03:00,51.3,51.0,30.09,SE,142,0.0,0.0,97,0.00,,,0.00,weatherlink.com 1.10,2013-03-17 06:03:00,
2013-03-17 02:18:00,51.2,50.0,30.09,SE,141,0.0,0.0,97,0.00,,,0.00,weatherlink.com 1.10,2013-03-17 06:18:00,
2013-03-17 02:33:00,51.1,51.0,30.09,SE,141,0.0,0.0,98,0.00,,,0.00,weatherlink.com 1.10,2013-03-17 06:33:00,
2013-03-17 02:48:00,50.8,50.0,30.09,SE,141,0.0,0.0,97,0.00,,,0.00,weatherlink.com 1.10,2013-03-17 06:48:00,
2013-03-17 03:03:00,50.6,50.0,30.09,SE,141,0.0,0.0,97,0.00,,,0.00,weatherlink.com 1.10,2013-03-17 07:03:00,
2013-03-17 03:18:00,50.4,50.0,30.09,SE,141,0.0,0.0,98,0.00,,,0.00,weatherlink.com 1.10,2013-03-17 07:18:00,
2013-03-17 03:33:00,50.0,49.0,30.09,SE,141,0.0,0.0,97,0.00,,,0.00,weatherlink.com 1.10,2013-03-17 07:33:00,
2013-03-17 03:48:00,50.3,50.0,30.08,SE,144,0.0,0.0,98,0.00,,,0.00,weatherlink.com 1.10,2013-03-17 07:48:00,
2013-03-17 04:03:00,50.1,50.0,30.08,SE,146,0.0,0.0,98,0.00,,,0.00,weatherlink.com 1.10,2013-03-17 08:03:00,
2013-03-17 04:18:00,48.5,48.0,30.08,SE,145,0.0,0.0,97,0.00,,,0.00,weatherlink.com 1.10,2013-03-17 08:18:00,
2013-03-17 04:33:00,47.9,47.0,30.08,SE,143,0.0,0.0,98,0.00,,,0.00,weatherlink.com 1.10,2013-03-17 08:33:00,
2013-03-17 04:48:00,47.7,47.0,30.07,SE,145,0.0,0.0,98,0.00,,,0.00,weatherlink.com 1.10,2013-03-17 08:48:00,
2013-03-17 05:03:00,48.9,49.0,30.07,SSE,154,0.0,0.0,99,0.00,,,0.00,weatherlink.com 1.10,2013-03-17 09:03:00,
2013-03-17 05:18:00,49.1,49.0,30.07,SE,136,0.0,0.0,99,0.00,,,0.00,weatherlink.com 1.10,2013-03-17 09:18:00,
2013-03-17 05:33:00,47.8,47.0,30.07,SE,137,0.0,0.0,98,0.00,,,0.00,weatherlink.com 1.10,2013-03-17 09:33:00,
2013-03-17 05:48:00,47.2,47.0,30.08,SE,136,0.0,0.0,98,0.00,,,0.00,weatherlink.com 1.10,2013-03-17 09:48:00,
2013-03-17 06:03:00,46.9,46.0,30.08,SE,136,0.0,0.0,98,0.00,,,0.00,weatherlink.com 1.10,2013-03-17 10:03:00,
2013-03-17 06:18:00,46.6,46.0,30.09,SE,136,0.0,0.0,98,0.00,,,0.00,weatherlink.com 1.10,2013-03-17 10:18:00,
2013-03-17 06:33:00,46.4,46.0,30.10,SE,136,0.0,0.0,98,0.00,,,0.00,weatherlink.com 1.10,2013-03-17 10:33:00,
2013-03-17 06:48:00,46.7,47.0,30.11,SE,136,0.0,0.0,99,0.00,,,0.00,weatherlink.com 1.10,2013-03-17 10:48:00,
2013-03-17 07:03:00,47.6,47.0,30.11,SSE,150,0.0,0.0,99,0.00,,,0.00,weatherlink.com 1.10,2013-03-17 11:03:00,
2013-03-17 07:18:00,48.6,48.0,30.12,SSE,150,0.0,0.0,99,0.00,,,0.00,weatherlink.com 1.10,2013-03-17 11:18:00,
2013-03-17 07:33:00,49.3,49.0,30.12,West,260,0.0,0.0,99,0.00,,,0.00,weatherlink.com 1.10,2013-03-17 11:33:00,
2013-03-17 07:48:00,49.8,50.0,30.12,West,259,0.0,0.0,99,0.00,,,0.00,weatherlink.com 1.10,2013-03-17 11:48:00,
2013-03-17 08:03:00,50.4,50.0,30.12,WSW,238,0.0,0.0,99,0.00,,,0.00,weatherlink.com 1.10,2013-03-17 12:03:00,
2013-03-17 08:18:00,51.2,51.0,30.13,South,184,0.0,0.0,99,0.00,,,0.00,weatherlink.com 1.10,2013-03-17 12:18:00,
2013-03-17 08:33:00,52.8,53.0,30.14,SE,146,0.0,0.0,99,0.00,,,0.00,weatherlink.com 1.10,2013-03-17 12:33:00,
2013-03-17 08:48:00,54.7,54.0,30.13,SE,126,0.0,0.0,98,0.00,,,0.00,weatherlink.com 1.10,2013-03-17 12:48:00,
2013-03-17 09:03:00,57.1,55.0,30.14,East,98,1.0,2.0,93,0.00,,,0.00,weatherlink.com 1.10,2013-03-17 13:03:00,
2013-03-17 09:19:00,58.7,54.0,30.14,South,173,0.0,3.0,84,0.00,,,0.00,weatherlink.com 1.10,2013-03-17 13:19:00,
2013-03-17 09:34:00,60.9,54.0,30.14,NE,42,0.0,2.0,79,0.00,,,0.00,weatherlink.com 1.10,2013-03-17 13:34:00,
2013-03-17 09:49:00,63.0,54.0,30.14,ESE,105,1.0,2.0,73,0.00,,,0.00,weatherlink.com 1.10,2013-03-17 13:49:00,
2013-03-17 10:04:00,64.9,54.0,30.14,ESE,114,2.0,4.0,69,0.00,,,0.00,weatherlink.com 1.10,2013-03-17 14:04:00,
2013-03-17 10:19:00,67.2,55.0,30.13,SE,124,4.0,5.0,66,0.00,,,0.00,weatherlink.com 1.10,2013-03-17 14:19:00,
2013-03-17 10:34:00,69.1,56.0,30.14,East,84,3.0,5.0,63,0.00,,,0.00,weatherlink.com 1.10,2013-03-17 14:34:00,
2013-03-17 10:49:00,70.1,56.0,30.13,SE,127,3.0,9.0,61,0.00,,,0.00,weatherlink.com 1.10,2013-03-17 14:49:00,
2013-03-17 11:04:00,72.1,57.0,30.14,SW,225,2.0,11.0,59,0.00,,,0.00,weatherlink.com 1.10,2013-03-17 15:04:00,
2013-03-17 11:19:00,71.8,57.0,30.14,SSE,149,2.0,9.0,59,0.00,,,0.00,weatherlink.com 1.10,2013-03-17 15:19:00,
2013-03-17 11:34:00,72.8,56.0,30.15,SSE,158,4.0,8.0,56,0.00,,,0.00,weatherlink.com 1.10,2013-03-17 15:34:00,
2013-03-17 11:49:00,72.8,56.0,30.14,SSE,149,4.0,13.0,56,0.00,,,0.00,weatherlink.com 1.10,2013-03-17 15:49:00,
2013-03-17 12:04:00,73.1,56.0,30.14,ESE,121,1.0,9.0,56,0.00,,,0.00,weatherlink.com 1.10,2013-03-17 16:04:00,
2013-03-17 12:19:00,73.4,56.0,30.13,SE,136,6.0,9.0,55,0.00,,,0.00,weatherlink.com 1.10,2013-03-17 16:19:00,
2013-03-17 12:34:00,74.7,57.0,30.13,South,186,7.0,9.0,54,0.00,,,0.00,weatherlink.com 1.10,2013-03-17 16:34:00,
2013-03-17 12:49:00,76.7,58.0,30.12,ESE,108,4.0,6.0,52,0.00,,,0.00,weatherlink.com 1.10,2013-03-17 16:49:00,
2013-03-17 13:04:00,76.8,57.0,30.11,SW,215,8.0,10.0,51,0.00,,,0.00,weatherlink.com 1.10,2013-03-17 17:04:00,
2013-03-17 13:19:00,76.7,57.0,30.10,SW,219,5.0,12.0,50,0.00,,,0.00,weatherlink.com 1.10,2013-03-17 17:19:00,
2013-03-17 13:34:00,77.5,57.0,30.10,WSW,256,2.0,9.0,50,0.00,,,0.00,weatherlink.com 1.10,2013-03-17 17:34:00,
2013-03-17 13:49:00,76.5,56.0,30.09,SE,135,2.0,11.0,50,0.00,,,0.00,weatherlink.com 1.10,2013-03-17 17:49:00,
2013-03-17 14:04:00,76.4,57.0,30.08,SW,226,1.0,15.0,51,0.00,,,0.00,weatherlink.com 1.10,2013-03-17 18:04:00,
2013-03-17 14:19:00,76.9,57.0,30.08,South,180,0.0,9.0,50,0.00,,,0.00,weatherlink.com 1.10,2013-03-17 18:19:00,
2013-03-17 14:34:00,77.9,57.0,30.07,SW,222,4.0,11.0,48,0.00,,,0.00,weatherlink.com 1.10,2013-03-17 18:34:00,
2013-03-17 14:49:00,78.0,56.0,30.06,WSW,250,1.0,11.0,47,0.00,,,0.00,weatherlink.com 1.10,2013-03-17 18:49:00,
2013-03-17 15:20:00,78.5,57.0,30.05,SSE,153,6.0,9.0,47,0.00,,,0.00,weatherlink.com 1.10,2013-03-17 19:20:00,
2013-03-17 15:35:00,78.3,56.0,30.04,SW,235,4.0,11.0,47,0.00,,,0.00,weatherlink.com 1.10,2013-03-17 19:35:00,
2013-03-17 15:50:00,78.8,56.0,30.04,SSW,211,0.0,5.0,46,0.00,,,0.00,weatherlink.com 1.10,2013-03-17 19:50:00,
2013-03-17 16:05:00,78.4,57.0,30.04,SW,230,2.0,8.0,48,0.00,,,0.00,weatherlink.com 1.10,2013-03-17 20:05:00,
2013-03-17 16:20:00,77.7,56.0,30.03,SE,131,3.0,7.0,48,0.00,,,0.00,weatherlink.com 1.10,2013-03-17 20:20:00,
2013-03-17 16:35:00,77.8,58.0,30.03,South,181,4.0,11.0,50,0.00,,,0.00,weatherlink.com 1.10,2013-03-17 20:35:00,
2013-03-17 16:50:00,77.5,57.0,30.02,WSW,245,1.0,5.0,50,0.00,,,0.00,weatherlink.com 1.10,2013-03-17 20:50:00,
2013-03-17 17:05:00,76.3,57.0,30.01,SSE,156,4.0,6.0,52,0.00,,,0.00,weatherlink.com 1.10,2013-03-17 21:05:00,
2013-03-17 17:20:00,75.2,57.0,30.00,SSE,159,3.0,6.0,54,0.00,,,0.00,weatherlink.com 1.10,2013-03-17 21:20:00,
2013-03-17 17:35:00,74.8,57.0,30.01,SE,131,3.0,6.0,55,0.00,,,0.00,weatherlink.com 1.10,2013-03-17 21:35:00,
2013-03-17 17:50:00,74.6,57.0,30.01,SSW,212,2.0,5.0,55,0.00,,,0.00,weatherlink.com 1.10,2013-03-17 21:50:00,
2013-03-17 18:05:00,74.6,58.0,30.02,SSW,204,0.0,7.0,56,0.00,,,0.00,weatherlink.com 1.10,2013-03-17 22:05:00,
2013-03-17 18:20:00,75.0,58.0,30.01,SE,126,2.0,5.0,55,0.00,,,0.00,weatherlink.com 1.10,2013-03-17 22:20:00,
2013-03-17 18:35:00,74.7,57.0,30.01,SE,130,0.0,3.0,55,0.00,,,0.00,weatherlink.com 1.10,2013-03-17 22:35:00,
2013-03-17 18:50:00,74.2,57.0,30.01,SW,215,0.0,3.0,56,0.00,,,0.00,weatherlink.com 1.10,2013-03-17 22:50:00,
2013-03-17 19:05:00,73.7,57.0,30.01,SSW,208,0.0,2.0,57,0.00,,,0.00,weatherlink.com 1.10,2013-03-17 23:05:00,
2013-03-17 19:20:00,73.1,58.0,30.01,SSE,156,1.0,2.0,59,0.00,,,0.00,weatherlink.com 1.10,2013-03-17 23:20:00,
2013-03-17 19:35:00,72.3,58.0,30.01,SSW,199,0.0,2.0,61,0.00,,,0.00,weatherlink.com 1.10,2013-03-17 23:35:00,
2013-03-17 19:50:00,71.4,59.0,30.02,SSW,200,0.0,1.0,64,0.00,,,0.00,weatherlink.com 1.10,2013-03-17 23:50:00,
2013-03-17 20:05:00,70.6,58.0,30.02,SSW,200,0.0,0.0,65,0.00,,,0.00,weatherlink.com 1.10,2013-03-18 00:05:00,
2013-03-17 20:20:00,70.2,59.0,30.02,SSW,200,0.0,0.0,67,0.00,,,0.00,weatherlink.com 1.10,2013-03-18 00:20:00,
2013-03-17 20:35:00,69.4,59.0,30.02,SSW,200,0.0,0.0,70,0.00,,,0.00,weatherlink.com 1.10,2013-03-18 00:35:00,
2013-03-17 20:50:00,68.8,59.0,30.02,SSW,200,0.0,0.0,71,0.00,,,0.00,weatherlink.com 1.10,2013-03-18 00:50:00,
2013-03-17 21:05:00,68.1,59.0,30.02,SSW,200,0.0,0.0,73,0.00,,,0.00,weatherlink.com 1.10,2013-03-18 01:05:00,
2013-03-17 21:20:00,67.6,59.0,30.03,SSW,200,0.0,0.0,74,0.00,,,0.00,weatherlink.com 1.10,2013-03-18 01:20:00,
2013-03-17 21:35:00,67.3,59.0,30.04,SSW,200,0.0,0.0,74,0.00,,,0.00,weatherlink.com 1.10,2013-03-18 01:35:00,
2013-03-17 21:50:00,66.6,59.0,30.04,SSW,200,0.0,0.0,76,0.00,,,0.00,weatherlink.com 1.10,2013-03-18 01:50:00,
2013-03-17 22:05:00,66.4,59.0,30.03,SSE,159,0.0,0.0,77,0.00,,,0.00,weatherlink.com 1.10,2013-03-18 02:05:00,
2013-03-17 22:20:00,65.6,59.0,30.05,SSE,162,0.0,0.0,79,0.00,,,0.00,weatherlink.com 1.10,2013-03-18 02:20:00,
2013-03-17 22:35:00,64.5,59.0,30.05,SSE,160,0.0,0.0,81,0.00,,,0.00,weatherlink.com 1.10,2013-03-18 02:35:00,
2013-03-17 22:50:00,63.8,59.0,30.05,SSE,162,0.0,0.0,83,0.00,,,0.00,weatherlink.com 1.10,2013-03-18 02:50:00,
2013-03-17 23:05:00,63.9,58.0,30.05,SSE,162,0.0,0.0,82,0.00,,,0.00,weatherlink.com 1.10,2013-03-18 03:05:00,
2013-03-17 23:20:00,63.6,58.0,30.05,SSE,160,0.0,0.0,83,0.00,,,0.00,weatherlink.com 1.10,2013-03-18 03:20:00,
2013-03-17 23:35:00,63.0,59.0,30.06,SSE,160,0.0,0.0,85,0.00,,,0.00,weatherlink.com 1.10,2013-03-18 03:35:00,
2013-03-17 23:50:00,62.9,59.0,30.05,SSE,160,0.0,0.0,87,0.00,,,0.00,weatherlink.com 1.10,2013-03-18 03:50:00,